sensor_id;sensor_type;location;lat;lon;timestamp;P1;durP1;ratioP1;P2;durP2;ratioP2
12846;SDS011;6492;48.128;8.320;2022-12-13T00:00:22;10.00;;;6.20;;
12846;SDS011;6492;48.128;8.320;2022-12-13T00:04:24;9.10;;;5.60;;
12846;SDS011;6492;48.128;8.320;2022-12-13T00:08:27;9.13;;;5.60;;
12846;SDS011;6492;48.128;8.320;2022-12-13T00:12:30;12.97;;;5.67;;
12846;SDS011;6492;48.128;8.320;2022-12-13T00:16:33;9.97;;;5.73;;
12846;SDS011;6492;48.128;8.320;2022-12-13T00:20:38;8.63;;;5.30;;
12846;SDS011;6492;48.128;8.320;2022-12-13T00:24:40;9.57;;;5.93;;
12846;SDS011;6492;48.128;8.320;2022-12-13T00:28:43;9.00;;;5.00;;
12846;SDS011;6492;48.128;8.320;2022-12-13T00:32:49;11.90;;;6.40;;
12846;SDS011;6492;48.128;8.320;2022-12-13T00:36:52;9.30;;;5.50;;
12846;SDS011;6492;48.128;8.320;2022-12-13T00:40:54;10.50;;;5.47;;
12846;SDS011;6492;48.128;8.320;2022-12-13T00:44:56;11.30;;;5.13;;
12846;SDS011;6492;48.128;8.320;2022-12-13T00:49:00;8.73;;;5.00;;
12846;SDS011;6492;48.128;8.320;2022-12-13T00:53:02;9.93;;;5.70;;
12846;SDS011;6492;48.128;8.320;2022-12-13T00:57:05;8.70;;;4.83;;
12846;SDS011;6492;48.128;8.320;2022-12-13T01:01:08;9.67;;;5.00;;
12846;SDS011;6492;48.128;8.320;2022-12-13T01:05:13;7.97;;;5.03;;
12846;SDS011;6492;48.128;8.320;2022-12-13T01:09:16;9.37;;;5.40;;
12846;SDS011;6492;48.128;8.320;2022-12-13T01:13:22;8.57;;;5.30;;
12846;SDS011;6492;48.128;8.320;2022-12-13T01:17:24;11.63;;;6.00;;
12846;SDS011;6492;48.128;8.320;2022-12-13T01:21:28;9.87;;;5.40;;
12846;SDS011;6492;48.128;8.320;2022-12-13T01:25:30;9.90;;;6.03;;
12846;SDS011;6492;48.128;8.320;2022-12-13T01:29:33;10.40;;;5.37;;
12846;SDS011;6492;48.128;8.320;2022-12-13T01:33:35;10.00;;;5.30;;
12846;SDS011;6492;48.128;8.320;2022-12-13T01:37:39;9.43;;;4.63;;
12846;SDS011;6492;48.128;8.320;2022-12-13T01:41:42;7.40;;;5.40;;
12846;SDS011;6492;48.128;8.320;2022-12-13T01:45:45;11.00;;;5.60;;
12846;SDS011;6492;48.128;8.320;2022-12-13T01:49:47;9.70;;;5.53;;
12846;SDS011;6492;48.128;8.320;2022-12-13T01:53:51;7.93;;;4.70;;
12846;SDS011;6492;48.128;8.320;2022-12-13T01:57:55;8.73;;;5.47;;
12846;SDS011;6492;48.128;8.320;2022-12-13T02:02:00;11.83;;;6.23;;
12846;SDS011;6492;48.128;8.320;2022-12-13T02:06:04;9.47;;;5.70;;
12846;SDS011;6492;48.128;8.320;2022-12-13T02:10:11;10.67;;;5.37;;
12846;SDS011;6492;48.128;8.320;2022-12-13T02:14:13;7.67;;;5.30;;
12846;SDS011;6492;48.128;8.320;2022-12-13T02:18:24;11.23;;;5.93;;
12846;SDS011;6492;48.128;8.320;2022-12-13T02:22:40;7.50;;;5.30;;
12846;SDS011;6492;48.128;8.320;2022-12-13T02:27:10;8.23;;;5.13;;
12846;SDS011;6492;48.128;8.320;2022-12-13T02:31:21;9.37;;;5.30;;
12846;SDS011;6492;48.128;8.320;2022-12-13T02:35:30;6.93;;;4.23;;
12846;SDS011;6492;48.128;8.320;2022-12-13T02:39:46;7.33;;;5.20;;
12846;SDS011;6492;48.128;8.320;2022-12-13T02:43:55;8.93;;;4.50;;
12846;SDS011;6492;48.128;8.320;2022-12-13T02:48:01;8.77;;;5.10;;
12846;SDS011;6492;48.128;8.320;2022-12-13T02:52:06;7.63;;;5.30;;
12846;SDS011;6492;48.128;8.320;2022-12-13T02:56:09;7.63;;;5.07;;
12846;SDS011;6492;48.128;8.320;2022-12-13T03:00:12;7.93;;;5.07;;
12846;SDS011;6492;48.128;8.320;2022-12-13T03:04:20;10.17;;;5.83;;
12846;SDS011;6492;48.128;8.320;2022-12-13T03:08:34;8.27;;;4.77;;
12846;SDS011;6492;48.128;8.320;2022-12-13T03:12:47;8.70;;;5.07;;
12846;SDS011;6492;48.128;8.320;2022-12-13T03:17:13;10.67;;;4.80;;
12846;SDS011;6492;48.128;8.320;2022-12-13T03:21:20;7.93;;;4.93;;
12846;SDS011;6492;48.128;8.320;2022-12-13T03:25:22;7.77;;;4.53;;
12846;SDS011;6492;48.128;8.320;2022-12-13T03:29:31;9.03;;;5.47;;
12846;SDS011;6492;48.128;8.320;2022-12-13T03:33:33;9.40;;;4.83;;
12846;SDS011;6492;48.128;8.320;2022-12-13T03:37:36;10.53;;;6.00;;
12846;SDS011;6492;48.128;8.320;2022-12-13T03:41:38;9.43;;;5.10;;
12846;SDS011;6492;48.128;8.320;2022-12-13T03:45:40;8.07;;;5.17;;
12846;SDS011;6492;48.128;8.320;2022-12-13T03:49:42;7.60;;;4.57;;
12846;SDS011;6492;48.128;8.320;2022-12-13T03:53:45;8.63;;;4.63;;
12846;SDS011;6492;48.128;8.320;2022-12-13T03:57:47;8.40;;;4.47;;
12846;SDS011;6492;48.128;8.320;2022-12-13T04:01:49;7.80;;;4.97;;
12846;SDS011;6492;48.128;8.320;2022-12-13T04:05:50;7.07;;;4.47;;
12846;SDS011;6492;48.128;8.320;2022-12-13T04:09:54;6.33;;;4.60;;
12846;SDS011;6492;48.128;8.320;2022-12-13T04:13:55;7.90;;;4.50;;
12846;SDS011;6492;48.128;8.320;2022-12-13T04:17:57;7.33;;;4.60;;
12846;SDS011;6492;48.128;8.320;2022-12-13T04:21:59;8.10;;;4.20;;
12846;SDS011;6492;48.128;8.320;2022-12-13T04:26:02;9.07;;;4.47;;
12846;SDS011;6492;48.128;8.320;2022-12-13T04:30:05;7.20;;;3.63;;
12846;SDS011;6492;48.128;8.320;2022-12-13T04:34:08;7.13;;;4.53;;
12846;SDS011;6492;48.128;8.320;2022-12-13T04:38:10;5.87;;;4.03;;
12846;SDS011;6492;48.128;8.320;2022-12-13T04:42:14;8.50;;;5.30;;
12846;SDS011;6492;48.128;8.320;2022-12-13T04:46:16;11.10;;;4.70;;
12846;SDS011;6492;48.128;8.320;2022-12-13T04:50:18;7.80;;;5.07;;
12846;SDS011;6492;48.128;8.320;2022-12-13T04:54:19;9.40;;;5.33;;
12846;SDS011;6492;48.128;8.320;2022-12-13T04:58:23;8.30;;;4.80;;
12846;SDS011;6492;48.128;8.320;2022-12-13T05:02:24;9.47;;;4.73;;
12846;SDS011;6492;48.128;8.320;2022-12-13T05:06:27;8.37;;;4.90;;
12846;SDS011;6492;48.128;8.320;2022-12-13T05:10:29;8.13;;;4.73;;
12846;SDS011;6492;48.128;8.320;2022-12-13T05:14:32;6.87;;;4.60;;
12846;SDS011;6492;48.128;8.320;2022-12-13T05:18:34;6.90;;;4.10;;
12846;SDS011;6492;48.128;8.320;2022-12-13T05:22:36;5.97;;;3.83;;
12846;SDS011;6492;48.128;8.320;2022-12-13T05:26:38;11.97;;;6.47;;
12846;SDS011;6492;48.128;8.320;2022-12-13T05:30:42;9.00;;;4.77;;
12846;SDS011;6492;48.128;8.320;2022-12-13T05:34:44;10.67;;;4.67;;
12846;SDS011;6492;48.128;8.320;2022-12-13T05:38:47;9.27;;;4.80;;
12846;SDS011;6492;48.128;8.320;2022-12-13T05:42:49;8.50;;;5.03;;
12846;SDS011;6492;48.128;8.320;2022-12-13T05:46:52;6.77;;;4.90;;
12846;SDS011;6492;48.128;8.320;2022-12-13T05:50:54;9.80;;;5.23;;
12846;SDS011;6492;48.128;8.320;2022-12-13T05:54:56;8.20;;;5.13;;
12846;SDS011;6492;48.128;8.320;2022-12-13T05:58:57;7.33;;;4.37;;
12846;SDS011;6492;48.128;8.320;2022-12-13T06:03:01;7.27;;;4.80;;
12846;SDS011;6492;48.128;8.320;2022-12-13T06:07:02;10.60;;;5.70;;
12846;SDS011;6492;48.128;8.320;2022-12-13T06:11:05;9.10;;;5.33;;
12846;SDS011;6492;48.128;8.320;2022-12-13T06:15:07;10.30;;;4.87;;
12846;SDS011;6492;48.128;8.320;2022-12-13T06:19:11;9.13;;;5.53;;
12846;SDS011;6492;48.128;8.320;2022-12-13T06:23:13;9.63;;;5.23;;
12846;SDS011;6492;48.128;8.320;2022-12-13T06:27:15;6.63;;;4.90;;
12846;SDS011;6492;48.128;8.320;2022-12-13T06:31:17;9.57;;;5.30;;
12846;SDS011;6492;48.128;8.320;2022-12-13T06:35:21;9.93;;;5.80;;
12846;SDS011;6492;48.128;8.320;2022-12-13T06:39:23;8.23;;;5.37;;
12846;SDS011;6492;48.128;8.320;2022-12-13T06:43:25;9.20;;;5.47;;
12846;SDS011;6492;48.128;8.320;2022-12-13T06:47:26;7.43;;;4.30;;
12846;SDS011;6492;48.128;8.320;2022-12-13T06:51:31;9.20;;;5.43;;
12846;SDS011;6492;48.128;8.320;2022-12-13T06:55:33;9.83;;;4.57;;
12846;SDS011;6492;48.128;8.320;2022-12-13T06:59:35;10.37;;;6.27;;
12846;SDS011;6492;48.128;8.320;2022-12-13T07:03:37;9.13;;;5.10;;
12846;SDS011;6492;48.128;8.320;2022-12-13T07:07:41;10.63;;;5.03;;
12846;SDS011;6492;48.128;8.320;2022-12-13T07:11:43;9.77;;;5.80;;
12846;SDS011;6492;48.128;8.320;2022-12-13T07:15:45;12.00;;;6.10;;
12846;SDS011;6492;48.128;8.320;2022-12-13T07:19:47;10.70;;;5.83;;
12846;SDS011;6492;48.128;8.320;2022-12-13T07:23:50;13.27;;;5.77;;
12846;SDS011;6492;48.128;8.320;2022-12-13T07:27:56;13.37;;;6.40;;
12846;SDS011;6492;48.128;8.320;2022-12-13T07:31:58;12.33;;;6.30;;
12846;SDS011;6492;48.128;8.320;2022-12-13T07:36:00;9.83;;;5.80;;
12846;SDS011;6492;48.128;8.320;2022-12-13T07:40:05;9.80;;;6.27;;
12846;SDS011;6492;48.128;8.320;2022-12-13T07:44:08;11.53;;;6.37;;
12846;SDS011;6492;48.128;8.320;2022-12-13T07:48:10;10.17;;;6.07;;
12846;SDS011;6492;48.128;8.320;2022-12-13T07:52:11;11.60;;;6.77;;
12846;SDS011;6492;48.128;8.320;2022-12-13T07:56:15;10.57;;;6.33;;
12846;SDS011;6492;48.128;8.320;2022-12-13T08:00:17;11.30;;;6.40;;
12846;SDS011;6492;48.128;8.320;2022-12-13T08:04:19;12.70;;;6.53;;
12846;SDS011;6492;48.128;8.320;2022-12-13T08:08:20;11.97;;;6.37;;
12846;SDS011;6492;48.128;8.320;2022-12-13T08:12:23;9.27;;;5.93;;
12846;SDS011;6492;48.128;8.320;2022-12-13T08:16:25;10.43;;;6.23;;
12846;SDS011;6492;48.128;8.320;2022-12-13T08:20:27;14.27;;;8.07;;
12846;SDS011;6492;48.128;8.320;2022-12-13T08:24:29;14.53;;;7.00;;
12846;SDS011;6492;48.128;8.320;2022-12-13T08:28:32;13.30;;;6.67;;
12846;SDS011;6492;48.128;8.320;2022-12-13T08:32:36;10.30;;;6.43;;
12846;SDS011;6492;48.128;8.320;2022-12-13T08:36:37;12.73;;;6.43;;
12846;SDS011;6492;48.128;8.320;2022-12-13T08:40:40;9.33;;;6.17;;
12846;SDS011;6492;48.128;8.320;2022-12-13T08:44:43;10.77;;;6.37;;
12846;SDS011;6492;48.128;8.320;2022-12-13T08:48:46;10.60;;;6.53;;
12846;SDS011;6492;48.128;8.320;2022-12-13T08:52:48;10.63;;;6.43;;
12846;SDS011;6492;48.128;8.320;2022-12-13T08:56:51;9.57;;;5.70;;
12846;SDS011;6492;48.128;8.320;2022-12-13T09:00:56;11.03;;;6.33;;
12846;SDS011;6492;48.128;8.320;2022-12-13T09:04:58;24.20;;;10.30;;
12846;SDS011;6492;48.128;8.320;2022-12-13T09:09:00;14.63;;;7.23;;
12846;SDS011;6492;48.128;8.320;2022-12-13T09:13:02;9.33;;;6.10;;
12846;SDS011;6492;48.128;8.320;2022-12-13T09:17:05;9.43;;;5.70;;
12846;SDS011;6492;48.128;8.320;2022-12-13T09:21:08;8.63;;;5.73;;
12846;SDS011;6492;48.128;8.320;2022-12-13T09:25:12;8.50;;;5.87;;
12846;SDS011;6492;48.128;8.320;2022-12-13T09:29:14;11.53;;;6.50;;
12846;SDS011;6492;48.128;8.320;2022-12-13T09:33:17;10.53;;;6.77;;
12846;SDS011;6492;48.128;8.320;2022-12-13T09:37:19;9.50;;;6.37;;
12846;SDS011;6492;48.128;8.320;2022-12-13T09:41:22;10.67;;;6.13;;
12846;SDS011;6492;48.128;8.320;2022-12-13T09:45:26;10.43;;;6.27;;
12846;SDS011;6492;48.128;8.320;2022-12-13T09:49:33;13.20;;;7.20;;
12846;SDS011;6492;48.128;8.320;2022-12-13T09:53:38;10.20;;;6.60;;
12846;SDS011;6492;48.128;8.320;2022-12-13T09:57:40;10.43;;;7.37;;
12846;SDS011;6492;48.128;8.320;2022-12-13T10:01:43;13.03;;;6.80;;
12846;SDS011;6492;48.128;8.320;2022-12-13T10:05:52;12.33;;;7.10;;
12846;SDS011;6492;48.128;8.320;2022-12-13T10:09:59;12.23;;;7.00;;
12846;SDS011;6492;48.128;8.320;2022-12-13T10:14:02;10.70;;;7.47;;
12846;SDS011;6492;48.128;8.320;2022-12-13T10:18:08;12.57;;;7.60;;
12846;SDS011;6492;48.128;8.320;2022-12-13T10:22:17;11.70;;;7.20;;
12846;SDS011;6492;48.128;8.320;2022-12-13T10:26:21;9.43;;;7.00;;
12846;SDS011;6492;48.128;8.320;2022-12-13T10:30:25;10.70;;;7.33;;
12846;SDS011;6492;48.128;8.320;2022-12-13T10:34:28;13.00;;;7.50;;
12846;SDS011;6492;48.128;8.320;2022-12-13T10:38:37;13.13;;;7.27;;
12846;SDS011;6492;48.128;8.320;2022-12-13T10:42:40;10.70;;;7.63;;
12846;SDS011;6492;48.128;8.320;2022-12-13T10:46:46;12.40;;;8.13;;
12846;SDS011;6492;48.128;8.320;2022-12-13T10:50:54;10.93;;;7.30;;
12846;SDS011;6492;48.128;8.320;2022-12-13T10:55:00;9.87;;;7.30;;
12846;SDS011;6492;48.128;8.320;2022-12-13T10:59:09;10.47;;;7.23;;
12846;SDS011;6492;48.128;8.320;2022-12-13T11:03:12;11.20;;;7.53;;
12846;SDS011;6492;48.128;8.320;2022-12-13T11:07:31;10.93;;;7.67;;
12846;SDS011;6492;48.128;8.320;2022-12-13T11:11:34;12.33;;;7.77;;
12846;SDS011;6492;48.128;8.320;2022-12-13T11:15:36;12.13;;;7.97;;
12846;SDS011;6492;48.128;8.320;2022-12-13T11:19:39;13.30;;;7.27;;
12846;SDS011;6492;48.128;8.320;2022-12-13T11:23:45;8.47;;;7.23;;
12846;SDS011;6492;48.128;8.320;2022-12-13T11:27:52;11.13;;;7.00;;
12846;SDS011;6492;48.128;8.320;2022-12-13T11:32:08;10.33;;;6.80;;
12846;SDS011;6492;48.128;8.320;2022-12-13T11:36:17;9.90;;;6.97;;
12846;SDS011;6492;48.128;8.320;2022-12-13T11:40:36;10.07;;;6.93;;
12846;SDS011;6492;48.128;8.320;2022-12-13T11:44:48;9.83;;;6.70;;
12846;SDS011;6492;48.128;8.320;2022-12-13T11:48:59;11.77;;;7.63;;
12846;SDS011;6492;48.128;8.320;2022-12-13T11:53:17;9.40;;;6.40;;
12846;SDS011;6492;48.128;8.320;2022-12-13T11:57:29;7.67;;;5.70;;
12846;SDS011;6492;48.128;8.320;2022-12-13T12:01:40;7.77;;;5.90;;
12846;SDS011;6492;48.128;8.320;2022-12-13T12:05:47;9.57;;;6.43;;
12846;SDS011;6492;48.128;8.320;2022-12-13T12:09:52;7.87;;;6.10;;
12846;SDS011;6492;48.128;8.320;2022-12-13T12:13:59;10.50;;;7.07;;
12846;SDS011;6492;48.128;8.320;2022-12-13T12:18:08;10.57;;;6.93;;
12846;SDS011;6492;48.128;8.320;2022-12-13T12:22:16;10.23;;;6.70;;
12846;SDS011;6492;48.128;8.320;2022-12-13T12:26:28;9.20;;;6.80;;
12846;SDS011;6492;48.128;8.320;2022-12-13T12:30:39;8.40;;;6.57;;
12846;SDS011;6492;48.128;8.320;2022-12-13T12:34:51;8.60;;;5.90;;
12846;SDS011;6492;48.128;8.320;2022-12-13T12:39:05;8.47;;;5.97;;
12846;SDS011;6492;48.128;8.320;2022-12-13T12:43:21;16.13;;;9.10;;
12846;SDS011;6492;48.128;8.320;2022-12-13T12:47:33;8.77;;;6.93;;
12846;SDS011;6492;48.128;8.320;2022-12-13T12:51:44;24.07;;;14.57;;
12846;SDS011;6492;48.128;8.320;2022-12-13T12:55:55;10.93;;;7.47;;
12846;SDS011;6492;48.128;8.320;2022-12-13T13:00:08;9.40;;;6.37;;
12846;SDS011;6492;48.128;8.320;2022-12-13T13:04:12;9.37;;;6.00;;
12846;SDS011;6492;48.128;8.320;2022-12-13T13:08:21;7.70;;;5.93;;
12846;SDS011;6492;48.128;8.320;2022-12-13T13:12:27;11.63;;;7.07;;
12846;SDS011;6492;48.128;8.320;2022-12-13T13:16:32;11.03;;;6.27;;
12846;SDS011;6492;48.128;8.320;2022-12-13T13:20:36;9.10;;;6.00;;
12846;SDS011;6492;48.128;8.320;2022-12-13T13:24:39;8.83;;;5.73;;
12846;SDS011;6492;48.128;8.320;2022-12-13T13:28:41;8.40;;;5.40;;
12846;SDS011;6492;48.128;8.320;2022-12-13T13:32:43;8.50;;;5.80;;
12846;SDS011;6492;48.128;8.320;2022-12-13T13:36:46;8.70;;;6.13;;
12846;SDS011;6492;48.128;8.320;2022-12-13T13:40:52;9.60;;;6.50;;
12846;SDS011;6492;48.128;8.320;2022-12-13T13:49:26;13.50;;;8.47;;
12846;SDS011;6492;48.128;8.320;2022-12-13T14:03:01;10.47;;;6.90;;
12846;SDS011;6492;48.128;8.320;2022-12-13T14:12:16;10.23;;;7.10;;
12846;SDS011;6492;48.128;8.320;2022-12-13T14:16:42;9.53;;;7.20;;
12846;SDS011;6492;48.128;8.320;2022-12-13T14:21:09;10.87;;;7.03;;
12846;SDS011;6492;48.128;8.320;2022-12-13T14:25:30;11.10;;;7.73;;
12846;SDS011;6492;48.128;8.320;2022-12-13T14:29:42;11.73;;;7.73;;
12846;SDS011;6492;48.128;8.320;2022-12-13T14:33:46;11.27;;;7.63;;
12846;SDS011;6492;48.128;8.320;2022-12-13T14:37:56;12.03;;;8.27;;
12846;SDS011;6492;48.128;8.320;2022-12-13T14:42:00;11.73;;;7.80;;
12846;SDS011;6492;48.128;8.320;2022-12-13T14:46:20;12.67;;;8.23;;
12846;SDS011;6492;48.128;8.320;2022-12-13T14:50:33;14.90;;;8.83;;
12846;SDS011;6492;48.128;8.320;2022-12-13T14:54:38;14.60;;;8.47;;
12846;SDS011;6492;48.128;8.320;2022-12-13T14:58:51;13.27;;;8.20;;
12846;SDS011;6492;48.128;8.320;2022-12-13T15:02:54;14.40;;;9.10;;
12846;SDS011;6492;48.128;8.320;2022-12-13T15:07:00;13.63;;;9.03;;
12846;SDS011;6492;48.128;8.320;2022-12-13T15:11:07;12.63;;;8.63;;
12846;SDS011;6492;48.128;8.320;2022-12-13T15:15:19;15.47;;;8.80;;
12846;SDS011;6492;48.128;8.320;2022-12-13T15:19:25;15.10;;;9.83;;
12846;SDS011;6492;48.128;8.320;2022-12-13T15:23:28;16.70;;;11.10;;
12846;SDS011;6492;48.128;8.320;2022-12-13T15:27:34;21.17;;;13.93;;
12846;SDS011;6492;48.128;8.320;2022-12-13T15:31:38;22.20;;;13.83;;
12846;SDS011;6492;48.128;8.320;2022-12-13T15:39:48;18.07;;;10.50;;
12846;SDS011;6492;48.128;8.320;2022-12-13T15:43:53;16.50;;;10.33;;
12846;SDS011;6492;48.128;8.320;2022-12-13T15:47:58;23.90;;;14.73;;
12846;SDS011;6492;48.128;8.320;2022-12-13T15:52:02;19.90;;;12.80;;
12846;SDS011;6492;48.128;8.320;2022-12-13T15:56:26;14.73;;;10.17;;
12846;SDS011;6492;48.128;8.320;2022-12-13T16:00:32;19.33;;;13.70;;
12846;SDS011;6492;48.128;8.320;2022-12-13T16:04:35;17.93;;;11.10;;
12846;SDS011;6492;48.128;8.320;2022-12-13T16:08:38;18.90;;;10.90;;
12846;SDS011;6492;48.128;8.320;2022-12-13T16:12:41;17.07;;;10.30;;
12846;SDS011;6492;48.128;8.320;2022-12-13T16:16:49;14.50;;;9.17;;
12846;SDS011;6492;48.128;8.320;2022-12-13T16:25:20;17.53;;;11.03;;
12846;SDS011;6492;48.128;8.320;2022-12-13T16:33:28;16.67;;;9.90;;
12846;SDS011;6492;48.128;8.320;2022-12-13T16:37:31;17.87;;;10.33;;
12846;SDS011;6492;48.128;8.320;2022-12-13T16:41:33;16.67;;;9.90;;
12846;SDS011;6492;48.128;8.320;2022-12-13T16:45:37;17.90;;;10.97;;
12846;SDS011;6492;48.128;8.320;2022-12-13T16:49:42;24.20;;;13.63;;
12846;SDS011;6492;48.128;8.320;2022-12-13T16:53:57;20.47;;;12.57;;
12846;SDS011;6492;48.128;8.320;2022-12-13T16:58:00;22.73;;;14.33;;
12846;SDS011;6492;48.128;8.320;2022-12-13T17:06:37;18.77;;;11.17;;
12846;SDS011;6492;48.128;8.320;2022-12-13T17:10:43;18.03;;;10.83;;
12846;SDS011;6492;48.128;8.320;2022-12-13T17:14:45;31.40;;;18.27;;
12846;SDS011;6492;48.128;8.320;2022-12-13T17:18:46;21.60;;;12.60;;
12846;SDS011;6492;48.128;8.320;2022-12-13T17:27:20;19.37;;;11.77;;
12846;SDS011;6492;48.128;8.320;2022-12-13T17:31:22;20.67;;;13.70;;
12846;SDS011;6492;48.128;8.320;2022-12-13T17:35:25;16.33;;;10.43;;
12846;SDS011;6492;48.128;8.320;2022-12-13T17:39:28;23.03;;;10.87;;
12846;SDS011;6492;48.128;8.320;2022-12-13T17:43:31;14.57;;;10.17;;
12846;SDS011;6492;48.128;8.320;2022-12-13T17:47:33;17.97;;;10.57;;
12846;SDS011;6492;48.128;8.320;2022-12-13T17:51:35;17.20;;;10.57;;
12846;SDS011;6492;48.128;8.320;2022-12-13T17:55:37;18.33;;;11.20;;
12846;SDS011;6492;48.128;8.320;2022-12-13T17:59:40;19.70;;;11.30;;
12846;SDS011;6492;48.128;8.320;2022-12-13T18:08:05;18.93;;;11.30;;
12846;SDS011;6492;48.128;8.320;2022-12-13T18:12:06;19.93;;;12.63;;
12846;SDS011;6492;48.128;8.320;2022-12-13T18:16:20;16.73;;;10.93;;
12846;SDS011;6492;48.128;8.320;2022-12-13T18:20:22;21.07;;;10.70;;
12846;SDS011;6492;48.128;8.320;2022-12-13T18:24:33;21.40;;;12.53;;
12846;SDS011;6492;48.128;8.320;2022-12-13T18:28:35;17.37;;;10.80;;
12846;SDS011;6492;48.128;8.320;2022-12-13T18:32:47;17.70;;;11.30;;
12846;SDS011;6492;48.128;8.320;2022-12-13T18:36:49;17.53;;;11.77;;
12846;SDS011;6492;48.128;8.320;2022-12-13T18:40:51;16.73;;;10.83;;
12846;SDS011;6492;48.128;8.320;2022-12-13T18:44:54;18.07;;;11.60;;
12846;SDS011;6492;48.128;8.320;2022-12-13T18:48:58;18.50;;;11.83;;
12846;SDS011;6492;48.128;8.320;2022-12-13T18:53:08;39.73;;;21.40;;
12846;SDS011;6492;48.128;8.320;2022-12-13T18:57:23;19.70;;;11.30;;
12846;SDS011;6492;48.128;8.320;2022-12-13T19:01:25;21.13;;;11.93;;
12846;SDS011;6492;48.128;8.320;2022-12-13T19:05:36;20.33;;;12.03;;
12846;SDS011;6492;48.128;8.320;2022-12-13T19:13:59;16.37;;;10.30;;
12846;SDS011;6492;48.128;8.320;2022-12-13T19:18:03;14.43;;;8.83;;
12846;SDS011;6492;48.128;8.320;2022-12-13T19:22:06;13.03;;;8.23;;
12846;SDS011;6492;48.128;8.320;2022-12-13T19:26:16;15.77;;;9.40;;
12846;SDS011;6492;48.128;8.320;2022-12-13T19:30:20;13.33;;;8.53;;
12846;SDS011;6492;48.128;8.320;2022-12-13T19:34:24;10.33;;;7.20;;
12846;SDS011;6492;48.128;8.320;2022-12-13T19:38:28;13.57;;;9.83;;
12846;SDS011;6492;48.128;8.320;2022-12-13T19:42:30;11.00;;;7.87;;
12846;SDS011;6492;48.128;8.320;2022-12-13T19:46:49;11.40;;;7.10;;
12846;SDS011;6492;48.128;8.320;2022-12-13T19:50:56;10.73;;;7.30;;
12846;SDS011;6492;48.128;8.320;2022-12-13T19:55:00;10.77;;;7.93;;
12846;SDS011;6492;48.128;8.320;2022-12-13T19:59:02;10.87;;;7.17;;
12846;SDS011;6492;48.128;8.320;2022-12-13T20:03:04;9.27;;;6.37;;
12846;SDS011;6492;48.128;8.320;2022-12-13T20:07:06;12.97;;;7.77;;
12846;SDS011;6492;48.128;8.320;2022-12-13T20:11:10;13.33;;;7.83;;
12846;SDS011;6492;48.128;8.320;2022-12-13T20:15:13;10.77;;;7.33;;
12846;SDS011;6492;48.128;8.320;2022-12-13T20:19:15;10.83;;;5.97;;
12846;SDS011;6492;48.128;8.320;2022-12-13T20:23:17;10.33;;;6.73;;
12846;SDS011;6492;48.128;8.320;2022-12-13T20:31:43;10.23;;;6.37;;
12846;SDS011;6492;48.128;8.320;2022-12-13T20:35:45;10.53;;;6.67;;
12846;SDS011;6492;48.128;8.320;2022-12-13T20:39:47;11.23;;;7.23;;
12846;SDS011;6492;48.128;8.320;2022-12-13T20:43:51;7.00;;;5.17;;
12846;SDS011;6492;48.128;8.320;2022-12-13T20:47:53;9.70;;;6.27;;
12846;SDS011;6492;48.128;8.320;2022-12-13T20:51:55;8.60;;;6.00;;
12846;SDS011;6492;48.128;8.320;2022-12-13T20:55:57;7.33;;;5.27;;
12846;SDS011;6492;48.128;8.320;2022-12-13T21:00:01;7.50;;;5.07;;
12846;SDS011;6492;48.128;8.320;2022-12-13T21:04:22;8.97;;;5.90;;
12846;SDS011;6492;48.128;8.320;2022-12-13T21:08:24;8.27;;;5.40;;
12846;SDS011;6492;48.128;8.320;2022-12-13T21:12:43;8.57;;;5.67;;
12846;SDS011;6492;48.128;8.320;2022-12-13T21:16:47;6.70;;;4.77;;
12846;SDS011;6492;48.128;8.320;2022-12-13T21:20:53;6.27;;;4.50;;
12846;SDS011;6492;48.128;8.320;2022-12-13T21:25:06;17.47;;;8.37;;
12846;SDS011;6492;48.128;8.320;2022-12-13T21:29:08;9.13;;;6.30;;
12846;SDS011;6492;48.128;8.320;2022-12-13T21:33:12;8.73;;;5.83;;
12846;SDS011;6492;48.128;8.320;2022-12-13T21:37:14;10.53;;;6.80;;
12846;SDS011;6492;48.128;8.320;2022-12-13T21:41:16;8.93;;;6.57;;
12846;SDS011;6492;48.128;8.320;2022-12-13T21:45:18;10.13;;;7.03;;
12846;SDS011;6492;48.128;8.320;2022-12-13T21:49:22;10.63;;;6.53;;
12846;SDS011;6492;48.128;8.320;2022-12-13T21:53:24;9.60;;;6.43;;
12846;SDS011;6492;48.128;8.320;2022-12-13T21:57:26;9.40;;;6.27;;
12846;SDS011;6492;48.128;8.320;2022-12-13T22:01:45;11.83;;;7.20;;
12846;SDS011;6492;48.128;8.320;2022-12-13T22:06:08;8.87;;;6.77;;
12846;SDS011;6492;48.128;8.320;2022-12-13T22:10:09;9.73;;;6.90;;
12846;SDS011;6492;48.128;8.320;2022-12-13T22:14:11;8.17;;;6.43;;
12846;SDS011;6492;48.128;8.320;2022-12-13T22:18:13;9.20;;;6.63;;
12846;SDS011;6492;48.128;8.320;2022-12-13T22:22:17;8.70;;;6.43;;
12846;SDS011;6492;48.128;8.320;2022-12-13T22:26:19;9.17;;;6.57;;
12846;SDS011;6492;48.128;8.320;2022-12-13T22:30:21;9.10;;;6.17;;
12846;SDS011;6492;48.128;8.320;2022-12-13T22:34:25;9.03;;;7.00;;
12846;SDS011;6492;48.128;8.320;2022-12-13T22:38:28;11.43;;;8.07;;
12846;SDS011;6492;48.128;8.320;2022-12-13T22:42:30;11.00;;;7.20;;
12846;SDS011;6492;48.128;8.320;2022-12-13T22:46:32;9.90;;;6.93;;
12846;SDS011;6492;48.128;8.320;2022-12-13T22:50:33;9.87;;;6.97;;
12846;SDS011;6492;48.128;8.320;2022-12-13T22:54:37;12.27;;;7.10;;
12846;SDS011;6492;48.128;8.320;2022-12-13T22:58:38;9.60;;;6.27;;
12846;SDS011;6492;48.128;8.320;2022-12-13T23:02:41;9.97;;;6.93;;
12846;SDS011;6492;48.128;8.320;2022-12-13T23:06:50;10.57;;;6.90;;
12846;SDS011;6492;48.128;8.320;2022-12-13T23:10:53;9.30;;;6.77;;
12846;SDS011;6492;48.128;8.320;2022-12-13T23:15:16;8.53;;;6.60;;
12846;SDS011;6492;48.128;8.320;2022-12-13T23:19:18;9.17;;;6.60;;
12846;SDS011;6492;48.128;8.320;2022-12-13T23:23:20;11.90;;;8.30;;
12846;SDS011;6492;48.128;8.320;2022-12-13T23:27:23;12.07;;;8.10;;
12846;SDS011;6492;48.128;8.320;2022-12-13T23:31:26;12.33;;;7.90;;
12846;SDS011;6492;48.128;8.320;2022-12-13T23:35:30;10.90;;;8.00;;
12846;SDS011;6492;48.128;8.320;2022-12-13T23:39:31;13.33;;;8.23;;
12846;SDS011;6492;48.128;8.320;2022-12-13T23:43:35;13.83;;;8.83;;
12846;SDS011;6492;48.128;8.320;2022-12-13T23:47:37;14.70;;;8.97;;
12846;SDS011;6492;48.128;8.320;2022-12-13T23:51:39;14.57;;;9.67;;
12846;SDS011;6492;48.128;8.320;2022-12-13T23:55:42;11.60;;;8.20;;
12846;SDS011;6492;48.128;8.320;2022-12-13T23:59:45;14.50;;;9.33;;
